sensor_id;sensor_type;location;lat;lon;timestamp;temperature;humidity
6752;DHT22;3413;47.680;9.166;2022-12-29T14:06:25;15.60;99.90
6752;DHT22;3413;47.680;9.166;2022-12-29T14:11:37;15.50;99.90
6752;DHT22;3413;47.680;9.166;2022-12-29T14:16:41;15.40;99.90
6752;DHT22;3413;47.680;9.166;2022-12-29T14:21:55;15.30;99.90
6752;DHT22;3413;47.680;9.166;2022-12-29T14:26:58;15.30;99.90
6752;DHT22;3413;47.680;9.166;2022-12-29T14:37:35;15.40;99.90
6752;DHT22;3413;47.680;9.166;2022-12-29T14:42:58;15.30;99.90
6752;DHT22;3413;47.680;9.166;2022-12-29T14:56:00;15.20;99.90
6752;DHT22;3413;47.680;9.166;2022-12-29T15:01:20;15.20;99.90
6752;DHT22;3413;47.680;9.166;2022-12-29T15:06:35;15.30;99.90
6752;DHT22;3413;47.680;9.166;2022-12-29T15:11:52;15.30;99.90
6752;DHT22;3413;47.680;9.166;2022-12-29T15:23:44;15.20;99.90
6752;DHT22;3413;47.680;9.166;2022-12-29T15:28:52;15.10;99.90
6752;DHT22;3413;47.680;9.166;2022-12-29T15:34:10;15.10;99.90
6752;DHT22;3413;47.680;9.166;2022-12-29T15:39:20;15.00;99.90
6752;DHT22;3413;47.680;9.166;2022-12-29T15:44:26;15.00;99.90
6752;DHT22;3413;47.680;9.166;2022-12-29T15:49:30;15.00;99.90
6752;DHT22;3413;47.680;9.166;2022-12-29T15:54:33;15.00;99.90
6752;DHT22;3413;47.680;9.166;2022-12-29T15:59:35;15.00;99.90
6752;DHT22;3413;47.680;9.166;2022-12-29T16:04:37;15.00;99.90
6752;DHT22;3413;47.680;9.166;2022-12-29T16:10:00;15.00;99.90
6752;DHT22;3413;47.680;9.166;2022-12-29T16:15:11;14.90;99.90
6752;DHT22;3413;47.680;9.166;2022-12-29T16:20:18;14.90;99.90
6752;DHT22;3413;47.680;9.166;2022-12-29T16:25:31;14.80;99.90
6752;DHT22;3413;47.680;9.166;2022-12-29T16:30:35;14.80;99.90
6752;DHT22;3413;47.680;9.166;2022-12-29T16:40:56;14.60;99.90
6752;DHT22;3413;47.680;9.166;2022-12-29T16:56:16;14.50;99.90
6752;DHT22;3413;47.680;9.166;2022-12-29T17:01:19;14.60;99.90
6752;DHT22;3413;47.680;9.166;2022-12-29T17:06:22;14.70;99.90
6752;DHT22;3413;47.680;9.166;2022-12-29T17:16:45;14.80;99.90
6752;DHT22;3413;47.680;9.166;2022-12-29T17:21:47;14.90;99.90
6752;DHT22;3413;47.680;9.166;2022-12-29T17:26:52;15.00;99.90
6752;DHT22;3413;47.680;9.166;2022-12-29T17:31:55;15.00;99.90
6752;DHT22;3413;47.680;9.166;2022-12-29T17:36:57;15.00;99.90
6752;DHT22;3413;47.680;9.166;2022-12-29T17:41:58;14.90;99.90
6752;DHT22;3413;47.680;9.166;2022-12-29T17:47:00;14.80;99.90
6752;DHT22;3413;47.680;9.166;2022-12-29T17:52:03;14.60;99.90
6752;DHT22;3413;47.680;9.166;2022-12-29T17:57:07;14.30;99.90
6752;DHT22;3413;47.680;9.166;2022-12-29T18:02:29;13.90;99.90
6752;DHT22;3413;47.680;9.166;2022-12-29T18:07:31;13.60;99.90
6752;DHT22;3413;47.680;9.166;2022-12-29T18:12:38;13.40;99.90
6752;DHT22;3413;47.680;9.166;2022-12-29T18:17:41;13.30;99.90
6752;DHT22;3413;47.680;9.166;2022-12-29T18:22:43;13.20;99.90
6752;DHT22;3413;47.680;9.166;2022-12-29T18:27:44;13.10;99.90
6752;DHT22;3413;47.680;9.166;2022-12-29T18:32:46;13.00;99.90
6752;DHT22;3413;47.680;9.166;2022-12-29T18:37:48;12.90;99.90
6752;DHT22;3413;47.680;9.166;2022-12-29T18:42:50;12.90;99.90
6752;DHT22;3413;47.680;9.166;2022-12-29T18:47:52;12.90;99.90
6752;DHT22;3413;47.680;9.166;2022-12-29T18:52:54;12.80;99.90
6752;DHT22;3413;47.680;9.166;2022-12-29T18:58:04;12.80;99.90
6752;DHT22;3413;47.680;9.166;2022-12-29T19:03:06;12.70;99.90
6752;DHT22;3413;47.680;9.166;2022-12-29T19:08:09;12.70;99.90
6752;DHT22;3413;47.680;9.166;2022-12-29T19:13:19;12.60;99.90
6752;DHT22;3413;47.680;9.166;2022-12-29T19:18:25;12.70;99.90
6752;DHT22;3413;47.680;9.166;2022-12-29T19:23:46;12.60;99.90
6752;DHT22;3413;47.680;9.166;2022-12-29T19:28:48;12.50;99.90
6752;DHT22;3413;47.680;9.166;2022-12-29T19:33:51;12.50;99.90
6752;DHT22;3413;47.680;9.166;2022-12-29T19:38:53;12.60;99.90
6752;DHT22;3413;47.680;9.166;2022-12-29T19:43:55;12.60;99.90
6752;DHT22;3413;47.680;9.166;2022-12-29T19:48:58;12.60;99.90
6752;DHT22;3413;47.680;9.166;2022-12-29T19:54:00;12.70;99.90
6752;DHT22;3413;47.680;9.166;2022-12-29T19:59:02;12.60;99.90
6752;DHT22;3413;47.680;9.166;2022-12-29T20:04:04;12.60;99.90
6752;DHT22;3413;47.680;9.166;2022-12-29T20:09:06;12.50;99.90
6752;DHT22;3413;47.680;9.166;2022-12-29T20:14:08;12.50;99.90
6752;DHT22;3413;47.680;9.166;2022-12-29T20:19:10;12.50;99.90
6752;DHT22;3413;47.680;9.166;2022-12-29T20:24:12;12.50;99.90
6752;DHT22;3413;47.680;9.166;2022-12-29T20:29:13;12.50;99.90
6752;DHT22;3413;47.680;9.166;2022-12-29T20:34:17;12.50;99.90
6752;DHT22;3413;47.680;9.166;2022-12-29T20:39:20;12.50;99.90
6752;DHT22;3413;47.680;9.166;2022-12-29T20:44:22;12.50;99.90
6752;DHT22;3413;47.680;9.166;2022-12-29T20:49:24;12.60;99.90
6752;DHT22;3413;47.680;9.166;2022-12-29T20:54:26;12.60;99.90
6752;DHT22;3413;47.680;9.166;2022-12-29T20:59:28;12.50;99.90
6752;DHT22;3413;47.680;9.166;2022-12-29T21:04:30;12.60;99.90
6752;DHT22;3413;47.680;9.166;2022-12-29T21:09:53;12.50;99.90
6752;DHT22;3413;47.680;9.166;2022-12-29T21:14:54;12.60;99.90
6752;DHT22;3413;47.680;9.166;2022-12-29T21:19:56;12.50;99.90
6752;DHT22;3413;47.680;9.166;2022-12-29T21:24:58;12.50;99.90
6752;DHT22;3413;47.680;9.166;2022-12-29T21:30:00;12.50;99.90
6752;DHT22;3413;47.680;9.166;2022-12-29T21:35:02;12.50;99.90
6752;DHT22;3413;47.680;9.166;2022-12-29T21:40:04;12.50;99.90
6752;DHT22;3413;47.680;9.166;2022-12-29T21:45:09;12.50;99.90
6752;DHT22;3413;47.680;9.166;2022-12-29T21:50:26;12.50;99.90
6752;DHT22;3413;47.680;9.166;2022-12-29T21:55:28;12.40;99.90
6752;DHT22;3413;47.680;9.166;2022-12-29T22:00:32;12.30;99.90
6752;DHT22;3413;47.680;9.166;2022-12-29T22:05:53;12.40;99.90
6752;DHT22;3413;47.680;9.166;2022-12-29T22:11:13;12.40;99.90
6752;DHT22;3413;47.680;9.166;2022-12-29T22:16:33;12.30;99.90
6752;DHT22;3413;47.680;9.166;2022-12-29T22:21:35;12.40;99.90
6752;DHT22;3413;47.680;9.166;2022-12-29T22:26:37;12.40;99.90
6752;DHT22;3413;47.680;9.166;2022-12-29T22:31:39;12.30;99.90
6752;DHT22;3413;47.680;9.166;2022-12-29T22:36:44;12.40;99.90
6752;DHT22;3413;47.680;9.166;2022-12-29T22:41:49;12.30;99.90
6752;DHT22;3413;47.680;9.166;2022-12-29T22:46:51;12.30;99.90
6752;DHT22;3413;47.680;9.166;2022-12-29T22:51:53;12.30;99.90
6752;DHT22;3413;47.680;9.166;2022-12-29T22:56:55;12.40;99.90
6752;DHT22;3413;47.680;9.166;2022-12-29T23:01:57;12.40;99.90
6752;DHT22;3413;47.680;9.166;2022-12-29T23:06:59;12.30;99.90
6752;DHT22;3413;47.680;9.166;2022-12-29T23:12:01;12.30;99.90
6752;DHT22;3413;47.680;9.166;2022-12-29T23:17:03;12.20;99.90
6752;DHT22;3413;47.680;9.166;2022-12-29T23:22:05;12.10;99.90
6752;DHT22;3413;47.680;9.166;2022-12-29T23:27:08;12.10;99.90
6752;DHT22;3413;47.680;9.166;2022-12-29T23:32:09;12.10;99.90
6752;DHT22;3413;47.680;9.166;2022-12-29T23:37:11;12.00;99.90
6752;DHT22;3413;47.680;9.166;2022-12-29T23:42:13;12.00;99.90
6752;DHT22;3413;47.680;9.166;2022-12-29T23:47:15;12.10;99.90
6752;DHT22;3413;47.680;9.166;2022-12-29T23:52:17;12.10;99.90
6752;DHT22;3413;47.680;9.166;2022-12-29T23:57:19;12.00;99.90
